Time;durP1;ratioP1;P1;durP2;ratioP2;P2;SDS_P1;SDS_P2;PMS_P1;PMS_P2;Temp;Humidity;BMP_temperature;BMP_pressure;BME280_temperature;BME280_humidity;BME280_pressure;Samples;Min_cycle;Max_cycle;Signal;HPM_P1;HPM_P2
2023/02/16 00:00:15;;;;;;;;;;;;;;;7.76;52.97;100162.78;4992425;28;19924;-73
2023/02/16 00:02:41;;;;;;;;;;;;;;;7.74;52.89;100155.06;4992423;28;20381;-73
2023/02/16 00:05:22;;;;;;;;;;;;;;;7.72;52.76;100146.47;4993934;28;19952;-73
2023/02/16 00:07:48;;;;;;;;;;;;;;;7.71;52.88;100151.75;4992343;28;19918;-73
2023/02/16 00:10:13;;;;;;;;;;;;;;;7.70;52.77;100148.31;4993461;28;19925;-73
2023/02/16 00:15:22;;;;;;;;;;;;;;;7.69;52.82;100145.78;4992727;28;20016;-73
2023/02/16 00:17:48;;;;;;;;;;;;;;;7.67;52.64;100148.44;4992235;28;19978;-73
2023/02/16 00:20:16;;;;;;;;;;;;;;;7.66;52.56;100151.09;4992292;28;19957;-73
2023/02/16 00:22:41;;;;;;;;;;;;;;;7.65;52.65;100147.63;4992065;28;19922;-73
2023/02/16 00:25:07;;;;;;;;;;;;;;;7.63;52.90;100144.25;4991851;28;20017;-72
2023/02/16 00:27:32;;;;;;;;;;;;;;;7.60;52.71;100145.22;4992392;28;20274;-72
2023/02/16 00:29:57;;;;;;;;;;;;;;;7.60;52.85;100147.00;4992107;28;20310;-72
2023/02/16 00:32:23;;;;;;;;;;;;;;;7.58;52.35;100146.22;4997837;28;20041;-72
2023/02/16 00:34:48;;;;;;;;;;;;;;;7.56;52.94;100150.63;4998561;28;19941;-72
2023/02/16 00:37:13;;;;;;;;;;;;;;;7.54;52.84;100145.50;4998626;28;19952;-72
2023/02/16 00:39:39;;;;;;;;;;;;;;;7.52;52.83;100146.47;4998858;28;20286;-73
2023/02/16 00:42:06;;;;;;;;;;;;;;;7.52;52.66;100151.66;4998930;28;20306;-72
2023/02/16 00:44:33;;;;;;;;;;;;;;;7.50;52.47;100145.69;4998394;28;20286;-71
2023/02/16 00:47:02;;;;;;;;;;;;;;;7.48;52.84;100144.88;4998421;28;19972;-72
2023/02/16 00:49:27;;;;;;;;;;;;;;;7.47;52.80;100131.06;4997598;28;19918;-72
2023/02/16 00:51:53;;;;;;;;;;;;;;;7.46;52.12;100133.72;4999686;28;20028;-72
2023/02/16 00:54:18;;;;;;;;;;;;;;;7.43;52.13;100138.16;4998437;28;19913;-72
2023/02/16 00:56:43;;;;;;;;;;;;;;;7.41;52.64;100134.75;4998428;28;19925;-72
2023/02/16 00:59:11;;;;;;;;;;;;;;;7.41;52.37;100133.91;4998453;28;19972;-72
2023/02/16 01:01:36;;;;;;;;;;;;;;;7.39;52.62;100122.75;4998091;28;20385;-72
2023/02/16 01:04:02;;;;;;;;;;;;;;;7.37;52.27;100128.00;4997566;28;19918;-72
2023/02/16 01:11:59;;;;;;;;;;;;;;;7.35;52.00;100124.63;4998544;28;19925;-72
2023/02/16 01:14:24;;;;;;;;;;;;;;;7.34;52.19;100115.13;4998202;28;19917;-72
2023/02/16 01:16:50;;;;;;;;;;;;;;;7.33;52.84;100113.44;4998167;28;20282;-73
2023/02/16 01:19:15;;;;;;;;;;;;;;;7.31;52.17;100107.47;4998512;28;19918;-73
2023/02/16 01:21:40;;;;;;;;;;;;;;;7.31;52.35;100110.06;4998098;28;20376;-73
2023/02/16 01:24:06;;;;;;;;;;;;;;;7.30;52.16;100120.53;4998097;28;19917;-73
2023/02/16 01:26:31;;;;;;;;;;;;;;;7.29;52.45;100111.88;4997901;28;19918;-73
2023/02/16 01:28:56;;;;;;;;;;;;;;;7.28;52.26;100120.56;4997659;28;19973;-73
2023/02/16 01:31:22;;;;;;;;;;;;;;;7.28;52.10;100120.56;4997235;28;19925;-73
2023/02/16 01:33:47;;;;;;;;;;;;;;;7.27;51.58;100112.84;4997314;28;20016;-73
2023/02/16 01:36:39;;;;;;;;;;;;;;;7.26;52.25;100119.81;4998433;28;19925;-73
2023/02/16 01:39:04;;;;;;;;;;;;;;;7.24;51.81;100111.22;4995471;28;19918;-73
2023/02/16 01:41:33;;;;;;;;;;;;;;;7.22;51.90;100110.44;4997197;28;19949;-72
2023/02/16 01:44:02;;;;;;;;;;;;;;;7.22;52.42;100111.28;4978242;28;20012;-72
2023/02/16 01:46:32;;;;;;;;;;;;;;;7.21;52.29;100108.72;4994789;28;19945;-70
2023/02/16 01:48:58;;;;;;;;;;;;;;;7.19;51.91;100119.19;4994694;28;20347;-70
2023/02/16 01:51:28;;;;;;;;;;;;;;;7.17;51.45;100117.56;4994811;28;19930;-73
2023/02/16 01:53:56;;;;;;;;;;;;;;;7.17;52.21;100112.38;4994959;28;19972;-73
2023/02/16 01:56:32;;;;;;;;;;;;;;;7.14;51.54;100113.34;4995993;28;19918;-73
2023/02/16 01:59:00;;;;;;;;;;;;;;;7.14;51.97;100115.09;4978395;28;19925;-73
2023/02/16 02:01:35;;;;;;;;;;;;;;;7.12;51.93;100117.75;4994569;28;20017;-74
2023/02/16 02:06:44;;;;;;;;;;;;;;;7.10;51.40;100121.31;4994728;28;20372;-74
2023/02/16 02:09:13;;;;;;;;;;;;;;;7.09;51.41;100120.47;4994398;28;19953;-72
2023/02/16 02:11:44;;;;;;;;;;;;;;;7.07;51.70;100115.34;4995864;28;19975;-72
2023/02/16 02:14:15;;;;;;;;;;;;;;;7.06;51.71;100111.03;4994198;28;19968;-72
2023/02/16 02:16:40;;;;;;;;;;;;;;;7.04;51.95;100112.88;4994292;28;19918;-73
2023/02/16 02:19:05;;;;;;;;;;;;;;;7.04;51.24;100112.88;4994149;28;19925;-73
2023/02/16 02:24:34;;;;;;;;;;;;;;;7.00;52.35;100113.03;4995340;28;20399;-73
2023/02/16 02:27:11;;;;;;;;;;;;;;;6.99;51.48;100116.53;4995434;28;19918;-74
2023/02/16 02:29:43;;;;;;;;;;;;;;;6.98;51.57;100122.66;4977284;28;19922;-73
2023/02/16 02:32:21;;;;;;;;;;;;;;;6.97;52.08;100115.75;4977716;28;19918;-73
2023/02/16 02:34:58;;;;;;;;;;;;;;;6.95;51.79;100120.19;4993676;28;19922;-73
2023/02/16 02:37:33;;;;;;;;;;;;;;;6.93;51.46;100116.81;4995376;28;19918;-73
2023/02/16 02:40:01;;;;;;;;;;;;;;;6.92;52.13;100120.28;4977600;28;19969;-71
2023/02/16 02:42:52;;;;;;;;;;;;;;;6.91;51.85;100119.47;4994843;28;19976;-73
2023/02/16 02:45:20;;;;;;;;;;;;;;;6.88;51.53;100116.97;4915996;29;19958;-73
2023/02/16 02:47:46;;;;;;;;;;;;;;;6.88;51.15;100119.56;4916123;29;19918;-71
2023/02/16 02:50:29;;;;;;;;;;;;;;;6.86;51.49;100121.38;4899907;29;19923;-72
2023/02/16 02:52:59;;;;;;;;;;;;;;;6.85;51.49;100115.34;4916291;29;19930;-72
2023/02/16 03:00:53;;;;;;;;;;;;;;;6.81;51.57;100118.94;4902643;29;20413;-73
2023/02/16 03:03:19;;;;;;;;;;;;;;;6.82;51.39;100130.19;4884258;29;19919;-73
2023/02/16 03:05:47;;;;;;;;;;;;;;;6.79;52.00;100122.53;4884172;29;19977;-73
2023/02/16 03:08:13;;;;;;;;;;;;;;;6.78;51.69;100123.41;4899673;29;19923;-75
2023/02/16 03:13:36;;;;;;;;;;;;;;;6.76;52.15;100126.06;4902381;29;19974;-74
2023/02/16 03:16:06;;;;;;;;;;;;;;;6.73;51.91;100130.53;4899782;29;19927;-73
2023/02/16 03:29:28;;;;;;;;;;;;;;;6.67;51.76;100118.63;4992759;28;19952;-73
2023/02/16 03:31:53;;;;;;;;;;;;;;;6.65;52.04;100125.63;4992667;28;19917;-73
2023/02/16 03:34:19;;;;;;;;;;;;;;;6.65;51.86;100120.44;4992896;28;19918;-73
2023/02/16 03:36:46;;;;;;;;;;;;;;;6.62;51.89;100121.41;4992751;28;19918;-73
2023/02/16 03:39:11;;;;;;;;;;;;;;;6.62;51.36;100126.59;4992728;28;19918;-73
2023/02/16 03:41:45;;;;;;;;;;;;;;;6.60;51.64;100127.56;4992822;28;19997;-73
2023/02/16 03:44:10;;;;;;;;;;;;;;;6.59;51.94;100131.88;4992960;28;20407;-72
2023/02/16 03:46:35;;;;;;;;;;;;;;;6.58;51.29;100129.34;4992022;28;19922;-72
2023/02/16 03:49:01;;;;;;;;;;;;;;;6.56;51.24;100132.00;4992525;28;20373;-71
2023/02/16 03:51:26;;;;;;;;;;;;;;;6.55;51.87;100129.47;4992780;28;19972;-72
2023/02/16 03:53:51;;;;;;;;;;;;;;;6.51;51.86;100128.75;4992666;28;19929;-71
2023/02/16 03:56:17;;;;;;;;;;;;;;;6.50;51.03;100125.31;4992094;28;19940;-71
2023/02/16 03:58:42;;;;;;;;;;;;;;;6.49;51.53;100127.97;4993464;28;19957;-72
2023/02/16 04:01:07;;;;;;;;;;;;;;;6.47;51.53;100127.19;4992427;28;19961;-71
2023/02/16 04:03:33;;;;;;;;;;;;;;;6.46;51.54;100126.31;4992342;28;19925;-71
2023/02/16 04:05:58;;;;;;;;;;;;;;;6.45;51.44;100128.97;4991905;28;19933;-70
2023/02/16 04:08:23;;;;;;;;;;;;;;;6.43;51.30;100125.59;4992164;28;19921;-70
2023/02/16 04:10:49;;;;;;;;;;;;;;;6.43;51.36;100130.78;4993911;28;19918;-70
2023/02/16 04:13:14;;;;;;;;;;;;;;;6.42;51.12;100131.66;4992282;28;19925;-70
2023/02/16 04:15:40;;;;;;;;;;;;;;;6.40;51.30;100133.47;4992295;28;19941;-70
2023/02/16 04:18:05;;;;;;;;;;;;;;;6.38;51.53;100130.94;4992309;28;19918;-69
2023/02/16 04:20:31;;;;;;;;;;;;;;;6.45;54.11;100128.97;4992127;28;19976;-71
2023/02/16 04:22:56;;;;;;;;;;;;;;;6.44;53.86;100128.13;4992137;28;19918;-71
2023/02/16 04:25:22;;;;;;;;;;;;;;;6.44;54.47;100129.88;4992415;28;19918;-74
2023/02/16 04:27:47;;;;;;;;;;;;;;;6.41;53.89;100130.00;4984335;28;19922;-72
2023/02/16 04:30:13;;;;;;;;;;;;;;;6.39;54.00;100127.47;4972124;28;19922;-71
2023/02/16 04:32:39;;;;;;;;;;;;;;;6.38;53.47;100130.94;4956575;28;19919;-72
2023/02/16 04:35:04;;;;;;;;;;;;;;;6.36;52.90;100122.38;4972677;28;19973;-72
2023/02/16 04:37:29;;;;;;;;;;;;;;;6.34;53.55;100130.22;4972776;28;19949;-71
2023/02/16 04:39:55;;;;;;;;;;;;;;;6.33;53.12;100125.94;4972919;28;20019;-71
2023/02/16 04:42:20;;;;;;;;;;;;;;;6.32;53.06;100128.56;4956471;28;19984;-70
2023/02/16 04:44:45;;;;;;;;;;;;;;;6.31;53.00;100127.75;4956488;28;19922;-71
2023/02/16 04:47:11;;;;;;;;;;;;;;;6.29;52.89;100132.16;4973072;28;20404;-72
2023/02/16 04:49:36;;;;;;;;;;;;;;;6.27;52.79;100126.16;4972384;28;20021;-71
2023/02/16 04:52:02;;;;;;;;;;;;;;;6.26;52.90;100132.25;4956331;28;19922;-71
2023/02/16 04:54:28;;;;;;;;;;;;;;;6.24;52.11;100133.19;4972562;28;20377;-71
2023/02/16 04:56:53;;;;;;;;;;;;;;;6.21;52.27;100134.16;4956404;28;19925;-72
2023/02/16 04:59:19;;;;;;;;;;;;;;;6.20;52.25;100134.19;4956547;28;19918;-71
2023/02/16 05:01:44;;;;;;;;;;;;;;;6.20;52.79;100140.25;4973609;28;20004;-71
2023/02/16 05:04:10;;;;;;;;;;;;;;;6.20;52.73;100145.44;4956309;28;19914;-71
2023/02/16 05:06:35;;;;;;;;;;;;;;;6.19;51.80;100143.72;4972449;28;19918;-71
2023/02/16 05:09:01;;;;;;;;;;;;;;;6.19;52.30;100148.09;4956827;28;19945;-70
2023/02/16 05:16:59;;;;;;;;;;;;;;;6.20;52.10;100157.53;4973550;28;19976;-70
2023/02/16 05:19:25;;;;;;;;;;;;;;;6.21;52.04;100152.28;4976617;28;20012;-71
2023/02/16 05:21:50;;;;;;;;;;;;;;;6.22;51.68;100154.00;4976172;28;20020;-72
2023/02/16 05:24:15;;;;;;;;;;;;;;;6.33;51.29;100153.63;4977118;28;20374;-71
2023/02/16 05:26:40;;;;;;;;;;;;;;;6.45;51.77;100154.91;4992023;28;19929;-70
2023/02/16 05:29:06;;;;;;;;;;;;;;;6.51;51.31;100160.75;4991616;28;19922;-70
2023/02/16 05:31:31;;;;;;;;;;;;;;;6.63;50.99;100154.25;4975620;28;19918;-75
2023/02/16 05:33:56;;;;;;;;;;;;;;;6.87;50.32;100164.59;4975589;28;19950;-73
2023/02/16 05:36:22;;;;;;;;;;;;;;;7.09;50.36;100162.03;4975599;28;20361;-72
2023/02/16 05:38:47;;;;;;;;;;;;;;;7.35;49.68;100168.78;4992113;28;20443;-72
2023/02/16 05:41:22;;;;;;;;;;;;;;;7.63;48.82;100170.25;4991887;28;20312;-72
2023/02/16 05:43:53;;;;;;;;;;;;;;;7.94;48.13;100168.97;4990441;28;20435;-72
2023/02/16 05:46:19;;;;;;;;;;;;;;;8.25;47.83;100163.28;4975434;28;19918;-72
2023/02/16 05:48:44;;;;;;;;;;;;;;;8.53;47.79;100169.91;4975698;28;20016;-72
2023/02/16 05:51:09;;;;;;;;;;;;;;;8.77;46.90;100180.97;4975303;28;19929;-73
2023/02/16 05:53:35;;;;;;;;;;;;;;;9.09;46.37;100181.22;4991955;28;19922;-74
2023/02/16 05:56:00;;;;;;;;;;;;;;;9.39;45.82;100178.06;4974908;28;19922;-72
2023/02/16 05:58:25;;;;;;;;;;;;;;;9.74;45.29;100192.00;4975080;28;19918;-72
2023/02/16 06:00:51;;;;;;;;;;;;;;;10.08;44.93;100179.03;4975036;28;19925;-72
2023/02/16 06:03:16;;;;;;;;;;;;;;;10.46;44.61;100184.06;4974411;28;19976;-72
2023/02/16 06:05:41;;;;;;;;;;;;;;;10.81;43.72;100182.16;4975028;28;19918;-71
2023/02/16 06:08:07;;;;;;;;;;;;;;;11.17;42.86;100175.84;4991400;28;19957;-71
2023/02/16 06:10:32;;;;;;;;;;;;;;;11.57;42.47;100186.69;4974602;28;20072;-71
2023/02/16 06:12:58;;;;;;;;;;;;;;;11.94;41.98;100191.59;4974981;28;19935;-71
2023/02/16 06:15:23;;;;;;;;;;;;;;;12.29;41.33;100192.09;4991020;28;19968;-71
2023/02/16 06:17:48;;;;;;;;;;;;;;;12.67;40.50;100188.91;4976187;28;19918;-70
2023/02/16 06:20:14;;;;;;;;;;;;;;;13.09;39.79;100202.03;4974789;28;19924;-72
2023/02/16 06:22:39;;;;;;;;;;;;;;;13.57;39.48;100201.63;4974513;28;19925;-71
2023/02/16 06:25:04;;;;;;;;;;;;;;;13.99;38.91;100199.72;4975731;28;19925;-72
2023/02/16 06:27:30;;;;;;;;;;;;;;;14.41;38.80;100202.16;4973982;28;19969;-74
2023/02/16 06:29:55;;;;;;;;;;;;;;;14.85;38.12;100208.78;4990742;28;19922;-71
2023/02/16 06:32:20;;;;;;;;;;;;;;;15.25;37.80;100213.81;4976097;28;19926;-73
2023/02/16 06:34:46;;;;;;;;;;;;;;;15.67;36.96;100214.25;4975834;28;19929;-74
2023/02/16 06:37:11;;;;;;;;;;;;;;;16.07;36.74;100218.34;4976012;28;19918;-73
2023/02/16 06:39:36;;;;;;;;;;;;;;;16.53;35.90;100217.47;4973803;28;19918;-74
2023/02/16 06:42:02;;;;;;;;;;;;;;;17.03;35.49;100224.16;4974374;28;19919;-72
2023/02/16 06:44:27;;;;;;;;;;;;;;;17.49;34.80;100217.81;4990429;28;19918;-74
2023/02/16 06:46:52;;;;;;;;;;;;;;;17.97;33.82;100220.03;4961019;28;20408;-73
2023/02/16 06:49:19;;;;;;;;;;;;;;;18.42;38.90;100217.13;4960699;28;19922;-82
2023/02/16 06:51:45;;;;;;;;;;;;;;;19.04;40.59;100225.03;4977611;28;20353;-72
2023/02/16 06:54:11;;;;;;;;;;;;;;;19.69;39.31;100222.75;4959171;28;20023;-76
2023/02/16 06:56:36;;;;;;;;;;;;;;;20.45;36.36;100223.78;4973851;28;19918;-73
2023/02/16 06:59:01;;;;;;;;;;;;;;;21.23;34.31;100236.69;4974893;28;19949;-71
2023/02/16 07:01:27;;;;;;;;;;;;;;;22.02;32.52;100229.78;4957840;28;19918;-71
2023/02/16 07:03:53;;;;;;;;;;;;;;;22.83;31.62;100230.44;4957831;28;19918;-75
2023/02/16 07:06:18;;;;;;;;;;;;;;;23.76;29.89;100221.50;4973944;28;20396;-71
2023/02/16 07:08:43;;;;;;;;;;;;;;;24.59;28.69;100224.09;4973446;28;19973;-73
2023/02/16 07:11:09;;;;;;;;;;;;;;;25.31;27.35;100226.63;4957863;28;19940;-71
2023/02/16 07:13:37;;;;;;;;;;;;;;;25.97;26.62;100223.50;4973836;28;20374;-69
2023/02/16 07:16:03;;;;;;;;;;;;;;;26.49;25.79;100219.13;4973899;28;19957;-73
2023/02/16 07:18:28;;;;;;;;;;;;;;;26.74;25.43;100216.16;4973499;28;19918;-69
2023/02/16 07:20:53;;;;;;;;;;;;;;;26.83;25.51;100220.41;4973817;28;20381;-70
2023/02/16 07:23:20;;;;;;;;;;;;;;;26.71;27.65;100220.88;4973555;28;19956;-71
2023/02/16 07:25:45;;;;;;;;;;;;;;;26.46;27.33;100219.47;4972891;28;19926;-71
2023/02/16 07:28:10;;;;;;;;;;;;;;;26.06;27.41;100216.19;4974493;28;19933;-74
2023/02/16 07:30:36;;;;;;;;;;;;;;;25.80;27.78;100214.75;4978506;28;19933;-71
2023/02/16 07:33:01;;;;;;;;;;;;;;;25.40;30.29;100212.19;4997238;28;19922;-73
2023/02/16 07:35:26;;;;;;;;;;;;;;;25.24;29.66;100209.63;4975507;28;19922;-72
2023/02/16 07:37:51;;;;;;;;;;;;;;;25.18;29.21;100202.31;4992703;28;20289;-72
2023/02/16 07:40:17;;;;;;;;;;;;;;;24.71;21.35;100196.03;4974884;28;19918;-69
2023/02/16 07:42:42;;;;;;;;;;;;;;;24.28;26.52;100204.31;4977591;28;19924;-72
2023/02/16 07:45:08;;;;;;;;;;;;;;;24.48;27.88;100204.78;4976306;28;19953;-74
2023/02/16 07:47:33;;;;;;;;;;;;;;;24.60;27.60;100201.75;4975418;28;19925;-69
2023/02/16 07:49:58;;;;;;;;;;;;;;;24.57;26.96;100194.91;4992557;28;20382;-70
2023/02/16 07:52:29;;;;;;;;;;;;;;;24.67;26.74;100198.22;4990668;28;19921;-70
2023/02/16 07:54:55;;;;;;;;;;;;;;;24.74;25.72;100199.19;4975067;28;20008;-71
2023/02/16 07:57:21;;;;;;;;;;;;;;;24.85;25.37;100197.13;4943656;28;20036;-70
2023/02/16 07:59:46;;;;;;;;;;;;;;;24.99;25.65;100203.59;4954939;28;19925;-74
2023/02/16 08:02:15;;;;;;;;;;;;;;;24.97;24.52;100198.41;4955571;28;19922;-71
2023/02/16 08:04:40;;;;;;;;;;;;;;;24.99;22.75;100200.91;4939523;28;20464;-72
2023/02/16 08:07:06;;;;;;;;;;;;;;;24.96;21.99;100195.94;4955523;28;20072;-72
2023/02/16 08:09:32;;;;;;;;;;;;;;;24.94;21.38;100196.09;4955426;28;19918;-73
2023/02/16 08:11:58;;;;;;;;;;;;;;;24.87;20.80;100203.94;4965349;28;19925;-71
2023/02/16 08:14:23;;;;;;;;;;;;;;;24.85;20.19;100199.81;4974439;28;20095;-73
2023/02/16 08:16:48;;;;;;;;;;;;;;;24.80;20.10;100197.66;4972732;28;20438;-78
2023/02/16 08:19:14;;;;;;;;;;;;;;;24.86;19.74;100191.63;4957974;28;20353;-72
2023/02/16 08:21:40;;;;;;;;;;;;;;;24.90;19.52;100200.13;4971438;28;20422;-77
2023/02/16 08:24:06;;;;;;;;;;;;;;;24.81;19.11;100195.81;4974122;28;19952;-76
2023/02/16 08:26:36;;;;;;;;;;;;;;;24.84;18.86;100196.31;4969583;28;19918;-82
2023/02/16 08:29:01;;;;;;;;;;;;;;;24.88;18.58;100204.81;4961211;28;19932;-85
2023/02/16 08:31:28;;;;;;;;;;;;;;;24.95;18.67;100188.91;4964880;28;20408;-85
2023/02/16 08:33:54;;;;;;;;;;;;;;;25.08;29.58;100194.50;4974700;28;19921;-74
2023/02/16 08:36:20;;;;;;;;;;;;;;;25.14;28.14;100198.31;4966298;28;19918;-82
2023/02/16 08:38:48;;;;;;;;;;;;;;;25.23;25.24;100195.41;4958676;28;19922;-84
2023/02/16 08:41:14;;;;;;;;;;;;;;;25.29;24.43;100191.25;4971125;28;19918;-87
2023/02/16 08:43:40;;;;;;;;;;;;;;;25.30;22.87;100194.72;4974872;28;19917;-79
2023/02/16 08:46:06;;;;;;;;;;;;;;;25.32;21.90;100193.56;4992043;28;19921;-78
2023/02/16 08:48:34;;;;;;;;;;;;;;;25.37;21.12;100196.53;4972096;28;19924;-82
2023/02/16 08:51:00;;;;;;;;;;;;;;;25.41;20.78;100199.66;4957360;28;19950;-77
2023/02/16 08:53:26;;;;;;;;;;;;;;;25.40;20.06;100193.50;4976864;28;20480;-77
2023/02/16 08:55:55;;;;;;;;;;;;;;;25.50;19.42;100200.44;4978549;28;19983;-77
2023/02/16 08:58:20;;;;;;;;;;;;;;;25.57;19.32;100198.69;4972926;28;19922;-82
2023/02/16 09:00:46;;;;;;;;;;;;;;;25.62;18.68;100199.84;4978303;28;19946;-78
2023/02/16 09:03:12;;;;;;;;;;;;;;;25.69;18.57;100191.09;4978306;28;19965;-77
2023/02/16 09:05:37;;;;;;;;;;;;;;;25.66;18.28;100192.28;4978694;28;19929;-79
2023/02/16 09:08:03;;;;;;;;;;;;;;;25.66;18.08;100200.31;4961609;28;19918;-77
2023/02/16 09:10:28;;;;;;;;;;;;;;;25.64;17.88;100203.16;4978424;28;19928;-77
2023/02/16 09:12:54;;;;;;;;;;;;;;;25.64;17.76;100207.69;4978393;28;19921;-78
2023/02/16 09:15:19;;;;;;;;;;;;;;;25.59;17.79;100210.06;4977969;28;20018;-77
2023/02/16 09:17:45;;;;;;;;;;;;;;;25.63;17.95;100206.00;4978460;28;20407;-78
2023/02/16 09:20:12;;;;;;;;;;;;;;;25.69;17.70;100199.94;4995551;28;20432;-86
2023/02/16 09:22:38;;;;;;;;;;;;;;;25.74;17.59;100202.91;4977056;28;19941;-74
2023/02/16 09:25:03;;;;;;;;;;;;;;;25.73;17.64;100201.25;4994453;28;20384;-76
2023/02/16 09:27:29;;;;;;;;;;;;;;;25.87;17.52;100204.13;4967857;28;20376;-76
2023/02/16 09:29:54;;;;;;;;;;;;;;;26.11;20.01;100208.47;4975969;28;19930;-74
2023/02/16 09:32:19;;;;;;;;;;;;;;;26.49;18.67;100206.53;4985885;28;19925;-77
2023/02/16 09:34:45;;;;;;;;;;;;;;;26.63;17.08;100204.03;4996740;28;19925;-85
2023/02/16 09:37:11;;;;;;;;;;;;;;;26.46;22.21;100208.78;4987902;28;19953;-77
2023/02/16 09:39:36;;;;;;;;;;;;;;;26.52;20.68;100203.50;4994635;28;20389;-78
2023/02/16 09:42:23;;;;;;;;;;;;;;;26.62;19.13;100195.19;4962810;28;20004;-78
2023/02/16 09:44:57;;;;;;;;;;;;;;;26.68;17.88;100188.28;4979166;28;19918;-73
2023/02/16 09:47:23;;;;;;;;;;;;;;;26.56;18.51;100190.56;4978794;28;20040;-78
2023/02/16 09:49:48;;;;;;;;;;;;;;;26.63;17.95;100188.81;4977943;28;19996;-73
2023/02/16 09:52:19;;;;;;;;;;;;;;;26.62;17.98;100186.31;4963148;28;19918;-76
2023/02/16 09:54:50;;;;;;;;;;;;;;;26.73;17.97;100188.56;4978961;28;20087;-77
2023/02/16 09:57:20;;;;;;;;;;;;;;;26.79;17.57;100178.91;4961879;28;19924;-78
2023/02/16 09:59:47;;;;;;;;;;;;;;;26.88;17.44;100184.00;4976949;28;20369;-73
2023/02/16 10:02:25;;;;;;;;;;;;;;;26.90;17.04;100176.59;4994143;28;19918;-73
2023/02/16 10:05:00;;;;;;;;;;;;;;;26.84;17.18;100173.84;4976679;28;20089;-75
2023/02/16 10:07:47;;;;;;;;;;;;;;;26.79;16.91;100168.19;4977495;28;19924;-79
2023/02/16 10:10:13;;;;;;;;;;;;;;;26.73;17.28;100161.75;4976781;28;20602;-74
2023/02/16 10:12:41;;;;;;;;;;;;;;;26.80;17.24;100159.97;4961266;28;19929;-74
2023/02/16 10:15:08;;;;;;;;;;;;;;;26.71;17.11;100159.28;4965685;28;19976;-74
2023/02/16 10:17:36;;;;;;;;;;;;;;;26.67;17.04;100157.16;4976869;28;19941;-75
2023/02/16 10:20:04;;;;;;;;;;;;;;;26.64;17.00;100150.28;4993813;28;20360;-74
2023/02/16 10:22:34;;;;;;;;;;;;;;;26.49;16.75;100141.47;4993776;28;19928;-75
2023/02/16 10:25:03;;;;;;;;;;;;;;;26.34;17.18;100147.63;4974802;28;20389;-77
2023/02/16 10:27:32;;;;;;;;;;;;;;;26.32;21.70;100143.50;4993889;28;20317;-75
2023/02/16 10:29:57;;;;;;;;;;;;;;;26.20;20.32;100144.97;4951587;28;20013;-74
2023/02/16 10:32:28;;;;;;;;;;;;;;;26.17;19.17;100130.97;4990122;28;20089;-74
2023/02/16 10:35:03;;;;;;;;;;;;;;;25.95;18.33;100131.84;4993648;28;19976;-76
2023/02/16 10:37:31;;;;;;;;;;;;;;;25.76;17.28;100126.03;4976572;28;20305;-76
2023/02/16 10:40:02;;;;;;;;;;;;;;;25.54;17.03;100122.38;4991254;28;19960;-77
2023/02/16 10:42:45;;;;;;;;;;;;;;;25.36;18.28;100121.88;4961411;28;19945;-75
2023/02/16 10:45:14;;;;;;;;;;;;;;;25.20;18.37;100115.59;4979038;28;19937;-88
2023/02/16 10:47:41;;;;;;;;;;;;;;;25.17;18.50;100115.13;4980223;28;20389;-86
2023/02/16 10:50:07;;;;;;;;;;;;;;;25.10;18.18;100112.34;4980501;28;19929;-81
2023/02/16 10:52:35;;;;;;;;;;;;;;;24.94;18.11;100118.63;4980109;28;19922;-86
2023/02/16 10:55:01;;;;;;;;;;;;;;;24.81;18.65;100105.03;4998721;28;19944;-81
2023/02/16 10:57:27;;;;;;;;;;;;;;;24.69;18.62;100102.75;4996899;28;20024;-83
2023/02/16 10:59:53;;;;;;;;;;;;;;;24.48;18.27;100099.81;4991225;28;20012;-84
2023/02/16 11:02:20;;;;;;;;;;;;;;;24.39;22.21;100099.88;4963561;28;20044;-74
2023/02/16 11:04:47;;;;;;;;;;;;;;;24.29;27.03;100104.59;4977722;28;19941;-74
2023/02/16 11:07:13;;;;;;;;;;;;;;;24.16;24.37;100094.47;4994847;28;19917;-75
2023/02/16 11:09:39;;;;;;;;;;;;;;;24.02;23.19;100089.84;4976174;28;19925;-76
2023/02/16 11:12:23;;;;;;;;;;;;;;;23.80;23.37;100092.22;4975449;28;20020;-74
2023/02/16 11:14:50;;;;;;;;;;;;;;;23.55;24.08;100091.41;4992112;28;19926;-78
2023/02/16 11:17:15;;;;;;;;;;;;;;;23.41;22.47;100086.78;4991793;28;19918;-74
2023/02/16 11:19:54;;;;;;;;;;;;;;;23.22;21.89;100087.94;4991860;28;19932;-74
2023/02/16 11:22:33;;;;;;;;;;;;;;;22.99;20.68;100079.72;4992836;28;20360;-76
2023/02/16 11:25:17;;;;;;;;;;;;;;;22.73;20.67;100075.38;4975677;28;19921;-75
2023/02/16 11:27:53;;;;;;;;;;;;;;;22.60;20.53;100065.19;4993000;28;19918;-75
2023/02/16 11:30:23;;;;;;;;;;;;;;;22.47;20.69;100057.69;4974765;28;19929;-76
2023/02/16 11:32:49;;;;;;;;;;;;;;;22.35;20.51;100064.28;4975963;28;20005;-75
2023/02/16 11:35:15;;;;;;;;;;;;;;;22.18;20.68;100058.88;4991980;28;19924;-77
2023/02/16 11:37:40;;;;;;;;;;;;;;;22.05;20.47;100055.81;4975190;28;19917;-76
2023/02/16 11:40:08;;;;;;;;;;;;;;;21.81;20.65;100056.56;4992230;28;19926;-75
2023/02/16 11:42:42;;;;;;;;;;;;;;;21.70;21.04;100049.66;4991683;28;19964;-78
2023/02/16 11:45:08;;;;;;;;;;;;;;;21.62;21.28;100053.09;4992520;28;20384;-74
2023/02/16 11:47:34;;;;;;;;;;;;;;;21.39;20.22;100052.75;4975707;28;19984;-77
2023/02/16 11:50:18;;;;;;;;;;;;;;;21.17;21.00;100046.09;4974887;28;20293;-75
2023/02/16 11:52:47;;;;;;;;;;;;;;;20.93;21.30;100050.22;4991270;28;19918;-76
2023/02/16 11:55:25;;;;;;;;;;;;;;;20.71;21.27;100038.22;4976206;28;19918;-76
2023/02/16 11:57:51;;;;;;;;;;;;;;;20.43;21.43;100029.47;4975566;28;20396;-76
2023/02/16 12:00:20;;;;;;;;;;;;;;;20.23;21.64;100039.34;4991103;28;19917;-75
2023/02/16 12:02:59;;;;;;;;;;;;;;;19.96;22.07;100032.25;4991657;28;20440;-75
2023/02/16 12:05:31;;;;;;;;;;;;;;;19.63;22.14;100029.94;4991759;28;19992;-75
2023/02/16 12:07:56;;;;;;;;;;;;;;;19.49;22.50;100030.41;4992404;28;19940;-75
2023/02/16 12:10:21;;;;;;;;;;;;;;;19.29;22.79;100014.56;4991239;28;20373;-76
2023/02/16 12:13:05;;;;;;;;;;;;;;;19.15;23.08;100015.81;4991053;28;19922;-77
2023/02/16 12:15:34;;;;;;;;;;;;;;;19.06;23.12;100016.66;4991719;28;20435;-77
2023/02/16 12:18:11;;;;;;;;;;;;;;;18.89;23.42;100009.44;4992667;28;19918;-79
2023/02/16 12:20:49;;;;;;;;;;;;;;;18.78;23.79;100007.72;4993197;28;19926;-80
2023/02/16 12:23:33;;;;;;;;;;;;;;;18.59;23.89;100001.44;4992515;28;19918;-77
2023/02/16 12:26:21;;;;;;;;;;;;;;;18.50;24.30;99998.78;4991153;28;19925;-77
2023/02/16 12:28:47;;;;;;;;;;;;;;;18.39;24.31;99997.09;4932824;29;20026;-77
2023/02/16 12:31:30;;;;;;;;;;;;;;;18.24;24.36;99994.03;4916728;29;20025;-76
2023/02/16 12:34:18;;;;;;;;;;;;;;;18.05;24.70;99989.53;4916607;29;19990;-77
2023/02/16 12:37:02;;;;;;;;;;;;;;;17.88;24.86;99989.22;4933102;29;20014;-79
2023/02/16 12:39:27;;;;;;;;;;;;;;;17.77;25.12;99981.31;4932468;29;19918;-79
2023/02/16 12:41:53;;;;;;;;;;;;;;;17.68;25.30;99984.78;4932518;29;19930;-79
2023/02/16 12:44:24;;;;;;;;;;;;;;;17.57;25.16;99976.94;4916769;29;20378;-76
2023/02/16 12:46:52;;;;;;;;;;;;;;;17.40;25.45;99975.75;4916738;29;20398;-76
2023/02/16 12:49:23;;;;;;;;;;;;;;;17.32;25.67;99979.88;4900914;29;19926;-76
2023/02/16 12:51:50;;;;;;;;;;;;;;;17.31;25.98;99969.44;4916833;29;20004;-76
2023/02/16 12:54:21;;;;;;;;;;;;;;;17.27;26.21;99963.59;4916326;29;19974;-75
2023/02/16 12:57:06;;;;;;;;;;;;;;;17.25;26.00;99960.25;4916511;29;19978;-76
2023/02/16 12:59:36;;;;;;;;;;;;;;;17.15;26.17;99960.19;4931375;29;19985;-80
2023/02/16 13:02:03;;;;;;;;;;;;;;;17.03;28.93;99953.31;4900480;29;20005;-78
2023/02/16 13:04:47;;;;;;;;;;;;;;;16.99;39.67;99954.53;4918229;29;19926;-77
2023/02/16 13:07:34;;;;;;;;;;;;;;;17.48;47.54;99954.81;5001533;28;19987;-76
2023/02/16 13:10:02;;;;;;;;;;;;;;;17.57;35.38;99953.16;4977847;28;19918;-73
2023/02/16 13:12:46;;;;;;;;;;;;;;;17.36;36.29;99946.13;4992014;28;19922;-79
2023/02/16 13:15:13;;;;;;;;;;;;;;;17.07;28.42;99933.63;4991607;28;20389;-78
2023/02/16 13:17:43;;;;;;;;;;;;;;;16.75;26.80;99937.13;4991054;28;19965;-79
2023/02/16 13:20:19;;;;;;;;;;;;;;;16.39;26.47;99939.19;4990723;28;20420;-74
2023/02/16 13:23:11;;;;;;;;;;;;;;;16.02;26.91;99933.41;4975259;28;20411;-74